Map

Track Data

SID SEASON NUMBER BASIN SUBBASIN NAME ISO_TIME NATURE LAT LON WMO_WIND WMO_PRES WMO_AGENCY TRACK_TYPE DIST2LAND LANDFALL IFLAG USA_AGENCY USA_ATCF_ID USA_LAT USA_LON USA_RECORD USA_STATUS USA_WIND USA_PRES USA_SSHS USA_R34_NE USA_R34_SE USA_R34_SW USA_R34_NW USA_R50_NE USA_R50_SE USA_R50_SW USA_R50_NW USA_R64_NE USA_R64_SE USA_R64_SW USA_R64_NW USA_POCI USA_ROCI USA_RMW USA_EYE TOKYO_LAT TOKYO_LON TOKYO_GRADE TOKYO_WIND TOKYO_PRES TOKYO_R50_DIR TOKYO_R50_LONG TOKYO_R50_SHORT TOKYO_R30_DIR TOKYO_R30_LONG TOKYO_R30_SHORT TOKYO_LAND CMA_LAT CMA_LON CMA_CAT CMA_WIND CMA_PRES HKO_LAT HKO_LON HKO_CAT HKO_WIND HKO_PRES NEWDELHI_LAT NEWDELHI_LON NEWDELHI_GRADE NEWDELHI_WIND NEWDELHI_PRES NEWDELHI_CI NEWDELHI_DP NEWDELHI_POCI REUNION_LAT REUNION_LON REUNION_TYPE REUNION_WIND REUNION_PRES REUNION_TNUM REUNION_CI REUNION_RMW REUNION_R34_NE REUNION_R34_SE REUNION_R34_SW REUNION_R34_NW REUNION_R50_NE REUNION_R50_SE REUNION_R50_SW REUNION_R50_NW REUNION_R64_NE REUNION_R64_SE REUNION_R64_SW REUNION_R64_NW BOM_LAT BOM_LON BOM_TYPE BOM_WIND BOM_PRES BOM_TNUM BOM_CI BOM_RMW BOM_R34_NE BOM_R34_SE BOM_R34_SW BOM_R34_NW BOM_R50_NE BOM_R50_SE BOM_R50_SW BOM_R50_NW BOM_R64_NE BOM_R64_SE BOM_R64_SW BOM_R64_NW BOM_ROCI BOM_POCI BOM_EYE BOM_POS_METHOD BOM_PRES_METHOD NADI_LAT NADI_LON NADI_CAT NADI_WIND NADI_PRES WELLINGTON_LAT WELLINGTON_LON WELLINGTON_WIND WELLINGTON_PRES DS824_LAT DS824_LON DS824_STAGE DS824_WIND DS824_PRES TD9636_LAT TD9636_LON TD9636_STAGE TD9636_WIND TD9636_PRES TD9635_LAT TD9635_LON TD9635_WIND TD9635_PRES TD9635_ROCI NEUMANN_LAT NEUMANN_LON NEUMANN_CLASS NEUMANN_WIND NEUMANN_PRES MLC_LAT MLC_LON MLC_CLASS MLC_WIND MLC_PRES USA_GUST BOM_GUST BOM_GUST_PER REUNION_GUST REUNION_GUST_PER USA_SEAHGT USA_SEARAD_NE USA_SEARAD_SE USA_SEARAD_SW USA_SEARAD_NW STORM_SPEED STORM_DIR
1922284N12285 1922 57 NA CS NOT_NAMED 1922-10-11 00:00:00 TS 12.0000 -75.5000 25 hurdat_atl main 129 129 O_____________ hurdat_atl AL041922 12.0000 -75.5000 TD 25 -1 3 270
1922284N12285 1922 57 NA CS NOT_NAMED 1922-10-11 03:00:00 TS 12.0000 -75.6625 main 141 141 P_____________ AL041922 12.0000 -75.6625 TD 25 -1 3 270
1922284N12285 1922 57 NA CS NOT_NAMED 1922-10-11 06:00:00 TS 12.0000 -75.8000 25 hurdat_atl main 145 145 O_____________ hurdat_atl AL041922 12.0000 -75.8000 TD 25 -1 2 270
1922284N12285 1922 57 NA CS NOT_NAMED 1922-10-11 09:00:00 TS 12.0000 -75.9000 main 149 149 P_____________ AL041922 12.0000 -75.9000 TD 25 -1 2 270
1922284N12285 1922 57 NA CS NOT_NAMED 1922-10-11 12:00:00 TS 12.0000 -76.0000 25 hurdat_atl main 154 154 O_____________ hurdat_atl AL041922 12.0000 -76.0000 TD 25 -1 2 270
1922284N12285 1922 57 NA CS NOT_NAMED 1922-10-11 15:00:00 TS 12.0000 -76.1500 main 160 166 P_____________ AL041922 12.0000 -76.1500 TD 25 -1 3 270
1922284N12285 1922 57 NA CS NOT_NAMED 1922-10-11 18:00:00 TS 12.0000 -76.3000 25 hurdat_atl main 173 173 O_____________ hurdat_atl AL041922 12.0000 -76.3000 TD 25 -1 3 270
1922284N12285 1922 57 NA CS NOT_NAMED 1922-10-11 21:00:00 TS 12.0000 -76.4075 main 180 180 P_____________ AL041922 12.0000 -76.4075 TD 25 -1 2 270
1922284N12285 1922 57 NA CS NOT_NAMED 1922-10-12 00:00:00 TS 12.0000 -76.5000 25 hurdat_atl main 187 187 O_____________ hurdat_atl AL041922 12.0000 -76.5000 TD 25 -1 2 270
1922284N12285 1922 57 NA CS NOT_NAMED 1922-10-12 03:00:00 TS 12.0000 -76.5925 main 195 195 P_____________ AL041922 12.0000 -76.5925 TD 25 -1 2 270
1922284N12285 1922 57 NA CS NOT_NAMED 1922-10-12 06:00:00 TS 12.0000 -76.7000 25 hurdat_atl main 203 203 O_____________ hurdat_atl AL041922 12.0000 -76.7000 TD 25 -1 3 267
1922284N12285 1922 57 NA CS NOT_NAMED 1922-10-12 09:00:00 TS 11.9850 -76.8500 main 218 218 P_____________ AL041922 11.9850 -76.8500 TD 25 -1 3 270
1922284N12285 1922 57 NA CS NOT_NAMED 1922-10-12 12:00:00 TS 12.0000 -77.0000 25 hurdat_atl main 226 226 O_____________ hurdat_atl AL041922 12.0000 -77.0000 TD 25 -1 3 290
1922284N12285 1922 57 NA CS NOT_NAMED 1922-10-12 15:00:00 TS 12.0775 -77.1075 main 242 242 P_____________ AL041922 12.0775 -77.1075 TD 25 -1 3 316
1922284N12285 1922 57 NA CS NOT_NAMED 1922-10-12 18:00:00 TS 12.2000 -77.2000 25 hurdat_atl main 257 257 O_____________ hurdat_atl AL041922 12.2000 -77.2000 TD 25 -1 3 324
1922284N12285 1922 57 NA CS NOT_NAMED 1922-10-12 21:00:00 TS 12.3350 -77.3000 main 273 273 P_____________ AL041922 12.3350 -77.3000 TD 25 -1 4 327
1922284N12285 1922 57 NA CS NOT_NAMED 1922-10-13 00:00:00 TS 12.5000 -77.4000 25 hurdat_atl main 296 296 O_____________ hurdat_atl AL041922 12.5000 -77.4000 TD 25 -1 4 332
1922284N12285 1922 57 NA CS NOT_NAMED 1922-10-13 03:00:00 TS 12.6775 -77.4851 main 320 320 P_____________ AL041922 12.6775 -77.4851 TD 25 -1 4 334
1922284N12285 1922 57 NA CS NOT_NAMED 1922-10-13 06:00:00 TS 12.9000 -77.6000 25 hurdat_atl main 343 343 O_____________ hurdat_atl AL041922 12.9000 -77.6000 TD 25 -1 6 330
1922284N12285 1922 57 NA CS NOT_NAMED 1922-10-13 09:00:00 TS 13.1700 -77.7775 main 382 382 P_____________ AL041922 13.1700 -77.7775 TD 25 -1 7 327
1922284N12285 1922 57 NA CS NOT_NAMED 1922-10-13 12:00:00 TS 13.5000 -78.0000 25 hurdat_atl main 421 421 O_____________ hurdat_atl AL041922 13.5000 -78.0000 TD 25 -1 8 327
1922284N12285 1922 57 NA CS NOT_NAMED 1922-10-13 15:00:00 TS 13.8775 -78.2425 main 438 405 P_____________ AL041922 13.8775 -78.2425 TD 25 -1 9 329
1922284N12285 1922 57 NA CS NOT_NAMED 1922-10-13 18:00:00 TS 14.3000 -78.5000 25 hurdat_atl main 405 372 O_____________ hurdat_atl AL041922 14.3000 -78.5000 TD 25 -1 10 330
1922284N12285 1922 57 NA CS NOT_NAMED 1922-10-13 21:00:00 TS 14.7350 -78.7501 main 376 332 P_____________ AL041922 14.7350 -78.7501 TD 27 -1 10 332
1922284N12285 1922 57 NA CS NOT_NAMED 1922-10-14 00:00:00 TS 15.2000 -79.0000 30 hurdat_atl main 332 292 O_____________ hurdat_atl AL041922 15.2000 -79.0000 TD 30 -1 11 334
1922284N12285 1922 57 NA CS NOT_NAMED 1922-10-14 03:00:00 TS 15.7075 -79.2500 main 295 252 P_____________ AL041922 15.7075 -79.2500 TD 30 -1 11 334
1922284N12285 1922 57 NA CS NOT_NAMED 1922-10-14 06:00:00 TS 16.2000 -79.5000 30 hurdat_atl main 252 226 O_____________ hurdat_atl AL041922 16.2000 -79.5000 TD 30 -1 10 332
1922284N12285 1922 57 NA CS NOT_NAMED 1922-10-14 09:00:00 TS 16.6300 -79.7501 main 232 215 P_____________ AL041922 16.6300 -79.7501 TD 30 -1 9 329
1922284N12285 1922 57 NA CS NOT_NAMED 1922-10-14 12:00:00 TS 17.0000 -80.0000 30 hurdat_atl main 216 209 O_____________ hurdat_atl AL041922 17.0000 -80.0000 TD 30 -1 9 326
1922284N12285 1922 57 NA CS NOT_NAMED 1922-10-14 15:00:00 TS 17.3375 -80.2500 main 225 215 P_____________ AL041922 17.3375 -80.2500 TD 30 -1 8 321
1922284N12285 1922 57 NA CS NOT_NAMED 1922-10-14 18:00:00 TS 17.6000 -80.5000 30 hurdat_atl main 232 232 O_____________ hurdat_atl AL041922 17.6000 -80.5000 TD 30 -1 7 313
1922284N12285 1922 57 NA CS NOT_NAMED 1922-10-14 21:00:00 TS 17.7800 -80.7501 main 257 257 P_____________ AL041922 17.7800 -80.7501 TD 30 -1 6 302
1922284N12285 1922 57 NA CS NOT_NAMED 1922-10-15 00:00:00 TS 17.9000 -81.0000 30 hurdat_atl main 276 276 O_____________ hurdat_atl AL041922 17.9000 -81.0000 TD 30 -1 5 296
1922284N12285 1922 57 NA CS NOT_NAMED 1922-10-15 03:00:00 TS 18.0150 -81.2500 main 307 306 P_____________ AL041922 18.0150 -81.2500 TD 30 -1 5 293
1922284N12285 1922 57 NA CS NOT_NAMED 1922-10-15 06:00:00 TS 18.1000 -81.5000 30 hurdat_atl main 327 327 O_____________ hurdat_atl AL041922 18.1000 -81.5000 TD 30 -1 5 285
1922284N12285 1922 57 NA CS NOT_NAMED 1922-10-15 09:00:00 TS 18.1500 -81.7651 main 359 357 P_____________ AL041922 18.1500 -81.7651 TD 32 -1 5 282
1922284N12285 1922 57 NA CS NOT_NAMED 1922-10-15 12:00:00 TS 18.2000 -82.0000 35 hurdat_atl main 357 352 O_____________ hurdat_atl AL041922 18.2000 -82.0000 TS 35 0 4 290
1922284N12285 1922 57 NA CS NOT_NAMED 1922-10-15 15:00:00 TS 18.2925 -82.1725 main 352 339 P_____________ AL041922 18.2925 -82.1725 TS 37 0 3 305
1922284N12285 1922 57 NA CS NOT_NAMED 1922-10-15 18:00:00 TS 18.4000 -82.3000 40 hurdat_atl main 339 327 O_____________ hurdat_atl AL041922 18.4000 -82.3000 TS 40 0 3 313
1922284N12285 1922 57 NA CS NOT_NAMED 1922-10-15 21:00:00 TS 18.5000 -82.4075 main 327 314 P_____________ AL041922 18.5000 -82.4075 TS 42 0 3 316
1922284N12285 1922 57 NA CS NOT_NAMED 1922-10-16 00:00:00 TS 18.6000 -82.5000 45 hurdat_atl main 314 302 O_____________ hurdat_atl AL041922 18.6000 -82.5000 TS 45 0 3 317
1922284N12285 1922 57 NA CS NOT_NAMED 1922-10-16 03:00:00 TS 18.6925 -82.5925 main 302 290 P_____________ AL041922 18.6925 -82.5925 TS 47 0 3 316
1922284N12285 1922 57 NA CS NOT_NAMED 1922-10-16 06:00:00 TS 18.8000 -82.7000 50 hurdat_atl main 290 279 O_____________ hurdat_atl AL041922 18.8000 -82.7000 TS 50 0 4 317
1922284N12285 1922 57 NA CS NOT_NAMED 1922-10-16 09:00:00 TS 18.9500 -82.8425 main 268 257 P_____________ AL041922 18.9500 -82.8425 TS 55 0 4 317
1922284N12285 1922 57 NA CS NOT_NAMED 1922-10-16 12:00:00 TS 19.1000 -83.0000 60 hurdat_atl main 258 248 O_____________ hurdat_atl AL041922 19.1000 -83.0000 TS 60 0 4 312
1922284N12285 1922 57 NA CS NOT_NAMED 1922-10-16 15:00:00 TS 19.2075 -83.1426 main 248 238 P_____________ AL041922 19.2075 -83.1426 TS 62 0 3 305
1922284N12285 1922 57 NA CS NOT_NAMED 1922-10-16 18:00:00 TS 19.3000 -83.3000 65 hurdat_atl main 240 232 O_____________ hurdat_atl AL041922 19.3000 -83.3000 HU 65 1 4 298
1922284N12285 1922 57 NA CS NOT_NAMED 1922-10-16 21:00:00 TS 19.3850 -83.4926 main 235 228 P_____________ AL041922 19.3850 -83.4926 HU 67 1 4 298
1922284N12285 1922 57 NA CS NOT_NAMED 1922-10-17 00:00:00 TS 19.5000 -83.7000 70 hurdat_atl main 232 221 O_____________ hurdat_atl AL041922 19.5000 -83.7000 HU 70 1 5 307
1922284N12285 1922 57 NA CS NOT_NAMED 1922-10-17 03:00:00 TS 19.6775 -83.9000 main 221 212 P_____________ AL041922 19.6775 -83.9000 HU 72 1 6 317
1922284N12285 1922 57 NA CS NOT_NAMED 1922-10-17 06:00:00 TS 19.9000 -84.1000 75 hurdat_atl main 212 191 O_____________ hurdat_atl AL041922 19.9000 -84.1000 HU 75 1 6 323
1922284N12285 1922 57 NA CS NOT_NAMED 1922-10-17 09:00:00 TS 20.1574 -84.2776 main 180 156 P_____________ AL041922 20.1574 -84.2776 HU 77 1 6 323
1922284N12285 1922 57 NA CS NOT_NAMED 1922-10-17 12:00:00 TS 20.4000 -84.5000 80 hurdat_atl main 156 134 O_____________ hurdat_atl AL041922 20.4000 -84.5000 HU 80 1 7 310
1922284N12285 1922 57 NA CS NOT_NAMED 1922-10-17 15:00:00 TS 20.5875 -84.8274 main 134 124 P_____________ AL041922 20.5875 -84.8274 HU 82 1 7 295
1922284N12285 1922 57 NA CS NOT_NAMED 1922-10-17 18:00:00 TS 20.7000 -85.2000 85 hurdat_atl main 129 129 O_____________ hurdat_atl AL041922 20.7000 -85.2000 HU 85 2 7 282
1922284N12285 1922 57 NA CS NOT_NAMED 1922-10-17 21:00:00 TS 20.7299 -85.5501 main 122 94 P_____________ AL041922 20.7299 -85.5501 HU 90 2 7 270
1922284N12285 1922 57 NA CS NOT_NAMED 1922-10-18 00:00:00 TS 20.7000 -85.9000 95 hurdat_atl main 94 68 O_____________ hurdat_atl AL041922 20.7000 -85.9000 HU 95 2 7 264
1922284N12285 1922 57 NA CS NOT_NAMED 1922-10-18 03:00:00 TS 20.6574 -86.2500 main 61 38 P_____________ AL041922 20.6574 -86.2500 HU 95 2 7 261
1922284N12285 1922 57 NA CS NOT_NAMED 1922-10-18 06:00:00 TS 20.6000 -86.6000 95 hurdat_atl main 38 22 O_____________ hurdat_atl AL041922 20.6000 -86.6000 HU 95 2 7 260
1922284N12285 1922 57 NA CS NOT_NAMED 1922-10-18 09:00:00 TS 20.5425 -86.9575 main 23 0 P_____________ AL041922 20.5425 -86.9575 HU 90 2 7 261
1922284N12285 1922 57 NA CS NOT_NAMED 1922-10-18 12:00:00 TS 20.5000 -87.3000 85 hurdat_atl main 0 0 O_____________ hurdat_atl AL041922 20.5000 -87.3000 HU 85 2 6 266
1922284N12285 1922 57 NA NA NOT_NAMED 1922-10-18 15:00:00 TS 20.4999 -87.6149 main 0 0 P_____________ AL041922 20.4999 -87.6149 HU 75 1 6 270
1922284N12285 1922 57 NA NA NOT_NAMED 1922-10-18 18:00:00 TS 20.5000 -87.9000 65 hurdat_atl main 0 0 O_____________ hurdat_atl AL041922 20.5000 -87.9000 HU 65 1 5 264
1922284N12285 1922 57 NA NA NOT_NAMED 1922-10-18 21:00:00 TS 20.4499 -88.1576 main 0 0 P_____________ AL041922 20.4499 -88.1576 HU 60 0 5 258
1922284N12285 1922 57 NA NA NOT_NAMED 1922-10-19 00:00:00 TS 20.4000 -88.4000 55 hurdat_atl main 0 0 O_____________ hurdat_atl AL041922 20.4000 -88.4000 TS 55 0 5 264
1922284N12285 1922 57 NA NA NOT_NAMED 1922-10-19 03:00:00 TS 20.3999 -88.6424 main 0 0 P_____________ AL041922 20.3999 -88.6424 TS 52 0 5 270
1922284N12285 1922 57 NA NA NOT_NAMED 1922-10-19 06:00:00 TS 20.4000 -88.9000 50 hurdat_atl main 0 0 O_____________ hurdat_atl AL041922 20.4000 -88.9000 TS 50 0 5 265
1922284N12285 1922 57 NA NA NOT_NAMED 1922-10-19 09:00:00 TS 20.3575 -89.2000 main 0 0 P_____________ AL041922 20.3575 -89.2000 TS 50 0 6 260
1922284N12285 1922 57 NA NA NOT_NAMED 1922-10-19 12:00:00 TS 20.3000 -89.5000 50 hurdat_atl main 0 0 O_____________ hurdat_atl AL041922 20.3000 -89.5000 TS 50 0 5 258
1922284N12285 1922 57 NA NA NOT_NAMED 1922-10-19 15:00:00 TS 20.2499 -89.7500 main 0 0 P_____________ AL041922 20.2499 -89.7500 TS 50 0 5 258
1922284N12285 1922 57 NA NA NOT_NAMED 1922-10-19 18:00:00 TS 20.2000 -90.0000 50 hurdat_atl main 0 0 O_____________ hurdat_atl AL041922 20.2000 -90.0000 TS 50 0 5 259
1922284N12285 1922 57 NA NA NOT_NAMED 1922-10-19 21:00:00 TS 20.1499 -90.2850 main 0 0 P_____________ AL041922 20.1499 -90.2850 TS 55 0 6 260
1922284N12285 1922 57 NA GM NOT_NAMED 1922-10-20 00:00:00 TS 20.1000 -90.6000 60 hurdat_atl main 10 10 O_____________ hurdat_atl AL041922 20.1000 -90.6000 TS 60 0 6 262
1922284N12285 1922 57 NA GM NOT_NAMED 1922-10-20 03:00:00 TS 20.0576 -90.9575 main 52 45 P_____________ AL041922 20.0576 -90.9575 TS 62 0 7 261
1922284N12285 1922 57 NA GM NOT_NAMED 1922-10-20 06:00:00 TS 20.0000 -91.3000 65 hurdat_atl main 71 71 O_____________ hurdat_atl AL041922 20.0000 -91.3000 HU 65 1 6 256
1922284N12285 1922 57 NA GM NOT_NAMED 1922-10-20 09:00:00 TS 19.9074 -91.5800 main 96 96 P_____________ AL041922 19.9074 -91.5800 HU 67 1 5 247
1922284N12285 1922 57 NA GM NOT_NAMED 1922-10-20 12:00:00 TS 19.8000 -91.8000 70 hurdat_atl main 103 98 O_____________ hurdat_atl AL041922 19.8000 -91.8000 HU 70 1 4 240
1922284N12285 1922 57 NA GM NOT_NAMED 1922-10-20 15:00:00 TS 19.6999 -91.9650 main 103 94 P_____________ AL041922 19.6999 -91.9650 HU 70 1 3 235
1922284N12285 1922 57 NA GM NOT_NAMED 1922-10-20 18:00:00 TS 19.6000 -92.1000 70 hurdat_atl main 100 99 O_____________ hurdat_atl AL041922 19.6000 -92.1000 HU 70 1 3 235
1922284N12285 1922 57 NA GM NOT_NAMED 1922-10-20 21:00:00 TS 19.5075 -92.2575 main 100 89 P_____________ AL041922 19.5075 -92.2575 HU 70 1 3 235
1922284N12285 1922 57 NA GM NOT_NAMED 1922-10-21 00:00:00 TS 19.4000 -92.4000 70 hurdat_atl main 89 78 O_____________ hurdat_atl AL041922 19.4000 -92.4000 HU 70 1 3 224
1922284N12285 1922 57 NA GM NOT_NAMED 1922-10-21 03:00:00 TS 19.2575 -92.5075 main 78 55 P_____________ AL041922 19.2575 -92.5075 HU 70 1 4 212
1922284N12285 1922 57 NA GM NOT_NAMED 1922-10-21 06:00:00 TS 19.1000 -92.6000 70 hurdat_atl main 55 44 O_____________ hurdat_atl AL041922 19.1000 -92.6000 HU 70 1 4 210
1922284N12285 1922 57 NA GM NOT_NAMED 1922-10-21 09:00:00 TS 18.9500 -92.7000 main 44 24 P_____________ AL041922 18.9500 -92.7000 HU 70 1 4 212
1922284N12285 1922 57 NA GM NOT_NAMED 1922-10-21 12:00:00 TS 18.8000 -92.8000 70 hurdat_atl main 24 15 O_____________ hurdat_atl AL041922 18.8000 -92.8000 HU 70 1 4 211
1922284N12285 1922 57 NA GM NOT_NAMED 1922-10-21 15:00:00 TS 18.6425 -92.9000 main 15 11 P_____________ AL041922 18.6425 -92.9000 HU 70 1 4 212
1922284N12285 1922 57 NA GM NOT_NAMED 1922-10-21 18:00:00 TS 18.5000 -93.0000 70 hurdat_atl main 11 0 O_____________ hurdat_atl AL041922 18.5000 -93.0000 HU 70 1 3 217
1922284N12285 1922 57 NA GM NOT_NAMED 1922-10-21 21:00:00 TS 18.3925 -93.1000 main 10 0 P_____________ AL041922 18.3925 -93.1000 HU 57 0 3 224
1922284N12285 1922 57 NA NA NOT_NAMED 1922-10-22 00:00:00 TS 18.3000 -93.2000 45 hurdat_atl main 0 0 O_____________ hurdat_atl AL041922 18.3000 -93.2000 TS 45 0 3 225
1922284N12285 1922 57 NA NA NOT_NAMED 1922-10-22 03:00:00 TS 18.2025 -93.3000 main 0 0 P_____________ AL041922 18.2025 -93.3000 TS 40 0 3 224
1922284N12285 1922 57 NA NA NOT_NAMED 1922-10-22 06:00:00 TS 18.1000 -93.4000 35 hurdat_atl main 0 O_____________ hurdat_atl AL041922 18.1000 -93.4000 TS 35 0 3 224

About IBTrACS Database

This database is a web-friendly format of International Best Track Archive for Climate Stewardship (IBTrACS), a global best track data archive curated by NOAA dating back to 1842.

Updated: 2021-10-19